Time;durP1;ratioP1;P1;durP2;ratioP2;P2;SDS_P1;SDS_P2;PMS_P1;PMS_P2;Temp;Humidity;BMP_temperature;BMP_pressure;BME280_temperature;BME280_humidity;BME280_pressure;Samples;Min_cycle;Max_cycle;Signal;HPM_P1;HPM_P2
2022/06/12 00:00:09;;;;;;;5.13;2.37;;;17.10;99.90;;;18.08;100.00;98735.06;4978779;28;20458;-78
2022/06/12 00:02:39;;;;;;;5.53;2.63;;;17.00;99.90;;;18.00;100.00;98735.34;4981493;28;20982;-77
2022/06/12 00:05:14;;;;;;;2.83;2.20;;;17.10;99.90;;;17.92;100.00;98738.25;4978436;28;20487;-78
2022/06/12 00:07:43;;;;;;;3.30;2.50;;;17.00;99.90;;;17.88;100.00;98732.59;4980856;28;20463;-78
2022/06/12 00:10:14;;;;;;;5.13;2.03;;;16.90;99.90;;;17.82;100.00;98732.66;4977179;28;20464;-78
2022/06/12 00:12:47;;;;;;;7.23;2.17;;;16.90;99.90;;;17.82;100.00;98737.94;4978937;28;20538;-78
2022/06/12 00:15:23;;;;;;;6.10;2.30;;;17.00;99.90;;;17.73;100.00;98732.13;4978473;28;20491;-77
2022/06/12 00:17:53;;;;;;;4.73;2.33;;;16.90;99.90;;;17.71;100.00;98728.03;4978683;28;20553;-78
2022/06/12 00:20:24;;;;;;;11.97;3.00;;;16.80;99.90;;;17.63;100.00;98730.97;4979057;28;20495;-77
2022/06/12 00:22:56;;;;;;;3.67;2.70;;;16.90;99.90;;;17.55;100.00;98738.13;4980384;28;20835;-77
2022/06/12 00:25:29;;;;;;;3.50;2.10;;;16.80;99.90;;;17.52;100.00;98732.44;4978749;28;20558;-78
2022/06/12 00:27:59;;;;;;;2.80;2.20;;;16.70;99.90;;;17.57;100.00;98733.44;4979653;28;20483;-78
2022/06/12 00:30:30;;;;;;;3.30;2.10;;;16.60;99.90;;;17.62;100.00;98729.34;4981453;28;20584;-78
2022/06/12 00:33:00;;;;;;;3.13;2.27;;;16.60;99.90;;;17.52;100.00;98735.91;4978699;28;21049;-78
2022/06/12 00:35:38;;;;;;;3.50;2.10;;;16.60;99.90;;;17.46;100.00;98728.81;4979446;28;20464;-78
2022/06/12 00:38:09;;;;;;;6.23;2.50;;;16.50;99.90;;;17.29;100.00;98727.69;4979251;28;20543;-77
2022/06/12 00:40:41;;;;;;;5.67;2.33;;;16.60;99.90;;;17.26;100.00;98730.78;4976618;28;20464;-78
2022/06/12 00:43:14;;;;;;;3.30;2.47;;;16.50;99.90;;;17.34;100.00;98727.06;4978135;28;20460;-78
2022/06/12 00:45:59;;;;;;;4.17;2.43;;;16.40;99.90;;;17.29;100.00;98725.06;4978984;28;20539;-78
2022/06/12 00:48:33;;;;;;;12.47;2.50;;;16.40;99.90;;;17.29;100.00;98733.00;4979213;28;20893;-77
2022/06/12 00:51:09;;;;;;;3.07;2.20;;;16.30;99.90;;;17.29;100.00;98733.00;4980294;28;20469;-78
2022/06/12 00:53:47;;;;;;;11.40;2.33;;;16.30;99.90;;;17.28;100.00;98734.03;4979399;28;20562;-77
2022/06/12 00:56:22;;;;;;;6.47;2.30;;;16.30;99.90;;;17.28;100.00;98733.22;4976765;28;20471;-78
2022/06/12 00:59:00;;;;;;;3.73;2.77;;;16.30;99.90;;;17.23;100.00;98725.91;4981111;28;20531;-77
2022/06/12 01:01:35;;;;;;;5.57;2.40;;;16.30;99.90;;;17.20;100.00;98730.81;4980427;28;20595;-78
2022/06/12 01:07:03;;;;;;;2.97;2.20;;;16.20;99.90;;;17.06;100.00;98730.06;4981450;28;20488;-77
2022/06/12 01:09:38;;;;;;;3.20;2.40;;;16.10;99.90;;;17.13;100.00;98725.56;4978254;28;20821;-78
2022/06/12 01:12:14;;;;;;;2.70;2.20;;;16.10;99.90;;;17.18;100.00;98728.38;4979756;28;20472;-78
2022/06/12 01:14:52;;;;;;;5.07;2.63;;;16.10;99.90;;;17.11;100.00;98738.19;4977230;28;20574;-77
2022/06/12 01:17:26;;;;;;;3.80;2.23;;;16.00;99.90;;;17.03;100.00;98731.31;4977174;28;21077;-77
2022/06/12 01:20:00;;;;;;;5.30;2.50;;;16.00;99.90;;;17.00;100.00;98731.75;4977383;28;20499;-78
2022/06/12 01:23:11;;;;;;;2.47;2.07;;;16.10;99.90;;;16.96;100.00;98727.09;4978648;28;20460;-78
2022/06/12 01:26:21;;;;;;;3.13;2.00;;;16.00;99.90;;;16.97;100.00;98731.34;4980380;28;20820;-78
2022/06/12 01:28:59;;;;;;;3.50;1.97;;;16.00;99.90;;;16.96;100.00;98733.19;4978635;28;20559;-78
2022/06/12 01:31:51;;;;;;;4.70;1.90;;;16.00;99.90;;;16.88;100.00;98737.88;4980338;28;21232;-78
2022/06/12 01:34:36;;;;;;;5.53;2.10;;;16.00;99.90;;;16.80;100.00;98738.13;4979344;28;20463;-78
2022/06/12 01:37:22;;;;;;;4.40;2.13;;;16.00;99.90;;;16.72;100.00;98730.44;4978737;28;20474;-77
2022/06/12 01:40:05;;;;;;;2.93;1.90;;;15.90;99.90;;;16.70;100.00;98738.56;4981304;28;20452;-78
2022/06/12 01:42:48;;;;;;;7.70;2.50;;;15.90;99.90;;;16.72;100.00;98739.19;4978454;28;20456;-77
2022/06/12 01:45:37;;;;;;;5.00;2.30;;;15.80;99.90;;;16.64;100.00;98734.13;4980350;28;20512;-78
2022/06/12 01:48:21;;;;;;;7.30;2.60;;;15.80;99.90;;;16.54;100.00;98742.47;4981937;28;20540;-78
2022/06/12 01:51:03;;;;;;;4.67;2.10;;;15.70;99.90;;;16.60;100.00;98740.84;4980310;28;20461;-78
2022/06/12 01:53:52;;;;;;;3.47;2.30;;;15.70;99.90;;;16.58;100.00;98741.06;4978316;28;20813;-78
2022/06/12 01:56:30;;;;;;;2.43;2.10;;;15.60;99.90;;;16.53;100.00;98745.28;4980736;28;20826;-77
2022/06/12 01:59:13;;;;;;;2.50;2.20;;;15.60;99.90;;;16.51;100.00;98740.25;4980095;28;20468;-78
2022/06/12 02:01:52;;;;;;;10.17;2.07;;;15.60;99.90;;;16.48;100.00;98743.28;4979518;28;20492;-77
2022/06/12 02:04:31;;;;;;;5.70;2.47;;;15.60;99.90;;;16.47;100.00;98744.31;4979392;28;20546;-78
2022/06/12 02:07:16;;;;;;;2.40;2.03;;;15.50;99.90;;;16.47;100.00;98743.50;4981178;28;20490;-78
2022/06/12 02:09:55;;;;;;;4.50;2.20;;;15.50;99.90;;;16.42;100.00;98744.09;4977106;28;20472;-78
2022/06/12 02:15:36;;;;;;;6.37;2.27;;;15.40;99.90;;;16.26;100.00;98738.47;4926701;29;20517;-78
2022/06/12 02:18:15;;;;;;;2.83;2.13;;;15.40;99.90;;;16.33;100.00;98739.25;4970486;28;20447;-77
2022/06/12 02:20:51;;;;;;;7.10;2.30;;;15.40;99.90;;;16.30;100.00;98743.13;4981237;28;21010;-77
2022/06/12 02:23:31;;;;;;;5.23;2.73;;;15.40;99.90;;;16.31;100.00;98734.19;4978592;28;20468;-78
2022/06/12 02:26:03;;;;;;;7.93;2.00;;;15.30;99.90;;;16.24;100.00;98733.41;4979367;28;20484;-78
2022/06/12 02:28:41;;;;;;;3.87;2.40;;;15.30;99.90;;;16.19;100.00;98733.19;4981269;28;20508;-77
2022/06/12 02:31:20;;;;;;;3.60;2.13;;;15.30;99.90;;;16.22;100.00;98731.97;4982062;28;20448;-77
2022/06/12 02:34:00;;;;;;;6.17;2.30;;;15.20;99.90;;;16.15;100.00;98728.53;4976896;28;20473;-78
2022/06/12 02:36:37;;;;;;;3.50;2.30;;;15.20;99.90;;;16.16;100.00;98733.59;4978879;28;20486;-77
2022/06/12 02:39:15;;;;;;;3.20;2.20;;;15.20;99.90;;;16.09;100.00;98732.81;4980013;28;20537;-78
2022/06/12 02:41:51;;;;;;;4.30;1.90;;;15.20;99.90;;;16.07;100.00;98738.28;4978128;28;20518;-77
2022/06/12 02:44:30;;;;;;;3.37;2.00;;;15.20;99.90;;;16.05;100.00;98731.59;4977473;28;20523;-77
2022/06/12 02:47:08;;;;;;;2.53;2.33;;;15.10;99.90;;;16.05;100.00;98742.13;4975969;28;20843;-77
2022/06/12 02:49:43;;;;;;;3.40;2.20;;;15.10;99.90;;;16.02;100.00;98734.63;4974924;28;20460;-77
2022/06/12 02:52:22;;;;;;;2.93;2.30;;;15.10;99.90;;;15.99;100.00;98735.06;4976176;28;20463;-78
2022/06/12 02:55:05;;;;;;;2.90;2.03;;;15.00;99.90;;;15.97;100.00;98740.50;4978129;28;20472;-78
2022/06/12 02:57:45;;;;;;;6.80;2.70;;;15.10;99.90;;;16.05;100.00;98731.59;4977080;28;20488;-78
2022/06/12 03:00:25;;;;;;;6.87;1.93;;;15.10;99.90;;;15.96;100.00;98733.63;4978077;28;21014;-78
2022/06/12 03:03:14;;;;;;;3.93;2.33;;;15.10;99.90;;;15.92;100.00;98734.25;4978414;28;20459;-78
2022/06/12 03:05:51;;;;;;;5.93;2.63;;;15.00;99.90;;;15.85;100.00;98738.72;4979183;28;20469;-78
2022/06/12 03:08:25;;;;;;;2.50;2.13;;;15.00;99.90;;;15.82;100.00;98736.47;4982527;28;20460;-78
2022/06/12 03:10:58;;;;;;;7.20;2.10;;;15.00;99.90;;;15.82;100.00;98741.75;4981229;28;20471;-78
2022/06/12 03:13:30;;;;;;;4.43;2.00;;;15.00;99.90;;;15.79;100.00;98731.63;4980450;28;20897;-78
2022/06/12 03:16:10;;;;;;;3.60;2.03;;;14.90;99.90;;;15.75;100.00;98741.75;4982685;28;20484;-77
2022/06/12 03:18:46;;;;;;;3.00;2.30;;;14.90;99.90;;;15.70;100.00;98743.38;4981952;28;20517;-78
2022/06/12 03:21:34;;;;;;;3.83;2.20;;;14.90;99.90;;;15.69;100.00;98750.47;4980610;28;20466;-78
2022/06/12 03:24:39;;;;;;;1.60;1.50;;;14.90;99.90;;;15.71;100.00;98751.09;4978526;28;20514;-77
2022/06/12 03:27:29;;;;;;;5.60;2.50;;;14.80;99.90;;;15.67;100.00;98754.31;4979360;28;20504;-77
2022/06/12 03:30:09;;;;;;;2.10;1.80;;;14.80;99.90;;;15.58;100.00;98751.88;4982058;28;20468;-77
2022/06/12 03:32:53;;;;;;;4.97;1.50;;;14.80;99.90;;;15.55;100.00;98759.38;4983007;28;20479;-77
2022/06/12 03:35:42;;;;;;;3.23;1.90;;;14.80;99.90;;;15.53;100.00;98756.13;4984668;28;20468;-78
2022/06/12 03:38:25;;;;;;;2.90;1.97;;;14.70;99.90;;;15.52;100.00;98757.94;4980039;28;20487;-77
2022/06/12 03:41:08;;;;;;;6.07;1.90;;;14.70;99.90;;;15.48;100.00;98762.00;4983189;28;20464;-77
2022/06/12 03:43:50;;;;;;;2.33;1.67;;;14.70;99.90;;;15.49;100.00;98762.81;4980655;28;20503;-78
2022/06/12 03:46:33;;;;;;;1.50;1.40;;;14.70;99.90;;;15.49;100.00;98768.09;4977552;28;20520;-79
2022/06/12 03:49:14;;;;;;;10.73;2.30;;;14.60;99.90;;;15.44;100.00;98770.50;4979859;28;20522;-77
2022/06/12 03:51:54;;;;;;;6.00;2.47;;;14.60;99.90;;;15.43;100.00;98767.03;4979631;28;21120;-77
2022/06/12 03:54:32;;;;;;;3.63;2.13;;;14.60;99.90;;;15.43;100.00;98772.31;4979465;28;20522;-78
2022/06/12 04:00:19;;;;;;;3.03;1.77;;;14.60;99.90;;;15.46;100.00;98769.28;4940711;28;20473;-78
2022/06/12 04:02:56;;;;;;;3.20;1.87;;;14.60;99.90;;;15.44;100.00;98768.66;4973238;28;20471;-77
2022/06/12 04:05:40;;;;;;;2.17;1.97;;;14.50;99.90;;;15.43;100.00;98769.69;4978955;28;20459;-78
2022/06/12 04:08:17;;;;;;;3.00;1.80;;;14.50;99.90;;;15.42;100.00;98768.03;4983986;28;20495;-77
2022/06/12 04:10:52;;;;;;;3.40;2.10;;;14.60;99.90;;;15.41;100.00;98771.69;4978991;28;20470;-78
2022/06/12 04:13:23;;;;;;;3.80;2.10;;;14.60;99.90;;;15.43;100.00;98767.03;4980914;28;20480;-78
2022/06/12 04:16:02;;;;;;;2.73;1.87;;;14.60;99.90;;;15.43;100.00;98767.03;4982632;28;20479;-77
2022/06/12 04:18:33;;;;;;;3.73;1.90;;;14.60;99.90;;;15.45;100.00;98767.63;4979741;28;20464;-78
2022/06/12 04:21:12;;;;;;;2.10;1.83;;;14.60;99.90;;;15.48;100.00;98769.91;4977570;28;20460;-78
2022/06/12 04:23:53;;;;;;;4.47;2.30;;;14.60;99.90;;;15.49;100.00;98768.09;4980461;28;20468;-81
2022/06/12 04:26:35;;;;;;;3.37;2.57;;;14.60;99.90;;;15.50;100.00;98773.16;4976480;28;20892;-77
2022/06/12 04:29:21;;;;;;;2.97;1.93;;;14.60;99.90;;;15.47;100.00;98775.34;4977639;28;20998;-77
2022/06/12 04:31:56;;;;;;;8.97;1.73;;;14.60;99.90;;;15.47;100.00;98775.34;4979467;28;20471;-78
2022/06/12 04:34:31;;;;;;;2.87;1.90;;;14.60;99.90;;;15.56;100.00;98774.19;4980698;28;21057;-78
2022/06/12 04:37:11;;;;;;;7.93;2.33;;;14.60;99.90;;;15.54;100.00;98766.50;4977907;28;20464;-79
2022/06/12 04:39:42;;;;;;;6.77;3.00;;;14.60;99.90;;;15.60;100.00;98770.94;4981384;28;20472;-78
2022/06/12 04:42:19;;;;;;;2.57;2.00;;;14.70;99.90;;;15.66;100.00;98765.88;4976451;28;20456;-78
2022/06/12 04:44:50;;;;;;;5.10;1.93;;;14.70;99.90;;;15.70;100.00;98764.47;4977582;28;20471;-78
2022/06/12 04:47:26;;;;;;;2.67;2.20;;;14.70;99.90;;;15.73;100.00;98769.31;4979801;28;20616;-79
2022/06/12 04:49:57;;;;;;;2.23;1.83;;;14.80;99.90;;;15.78;100.00;98778.28;4979214;28;20517;-78
2022/06/12 04:52:30;;;;;;;3.60;1.97;;;14.80;99.90;;;15.82;100.00;98773.41;4978158;28;20471;-78
2022/06/12 04:54:59;;;;;;;4.53;1.73;;;14.80;99.90;;;15.86;100.00;98772.78;4979624;28;20498;-78
2022/06/12 04:57:32;;;;;;;4.87;1.77;;;14.90;99.90;;;15.89;100.00;98775.03;4976796;28;21257;-78
2022/06/12 05:00:01;;;;;;;11.20;1.93;;;14.90;99.90;;;15.93;100.00;98778.09;4975273;28;20476;-78
2022/06/12 05:02:32;;;;;;;6.50;2.10;;;15.00;99.90;;;15.97;100.00;98771.34;4977791;28;20463;-78
2022/06/12 05:05:01;;;;;;;4.00;2.00;;;15.00;99.90;;;16.02;100.00;98763.66;4978983;28;20552;-78
2022/06/12 05:07:32;;;;;;;12.73;2.43;;;15.00;99.90;;;16.06;100.00;98767.53;4976885;28;20873;-85
2022/06/12 05:10:03;;;;;;;2.53;2.03;;;15.10;99.90;;;16.08;100.00;98763.66;4977395;28;20468;-79
2022/06/12 05:12:39;;;;;;;6.20;2.50;;;15.10;99.90;;;16.14;100.00;98756.72;4977067;28;20465;-78
2022/06/12 05:15:13;;;;;;;8.77;2.87;;;15.10;99.90;;;16.17;100.00;98760.81;4978844;28;20491;-79
2022/06/12 05:17:48;;;;;;;2.50;2.20;;;15.20;99.90;;;16.19;100.00;98756.94;4975050;28;20470;-79
2022/06/12 05:20:24;;;;;;;2.40;1.80;;;15.30;99.90;;;16.22;100.00;98759.16;4980852;28;20471;-79
2022/06/12 05:22:54;;;;;;;4.47;2.03;;;15.30;99.90;;;16.28;100.00;98760.19;4979835;28;20505;-78
2022/06/12 05:25:25;;;;;;;4.07;1.90;;;15.30;99.90;;;16.31;100.00;98760.59;4980699;28;20504;-78
2022/06/12 05:27:58;;;;;;;2.60;1.90;;;15.30;99.90;;;16.35;100.00;98764.41;4978889;28;21261;-78
2022/06/12 05:30:34;;;;;;;3.30;1.70;;;15.40;99.90;;;16.39;100.00;98760.34;4979609;28;20468;-79
2022/06/12 05:33:05;;;;;;;5.80;2.20;;;15.40;99.90;;;16.45;100.00;98759.53;4975930;28;20463;-79
2022/06/12 05:35:38;;;;;;;3.77;2.33;;;15.50;99.90;;;16.49;100.00;98755.47;4978833;28;20471;-79
2022/06/12 05:38:12;;;;;;;3.37;1.80;;;15.50;99.90;;;16.53;100.00;98766.41;4978591;28;20467;-79
2022/06/12 05:40:44;;;;;;;2.80;2.20;;;15.50;99.90;;;16.56;100.00;98758.94;4980645;28;20827;-79
2022/06/12 05:43:16;;;;;;;5.37;2.30;;;15.60;99.90;;;16.62;100.00;98754.66;4979144;28;20542;-79
2022/06/12 05:45:46;;;;;;;3.60;1.93;;;15.60;99.90;;;16.67;100.00;98756.66;4978133;28;20953;-79
2022/06/12 05:48:21;;;;;;;2.00;1.70;;;15.70;99.90;;;16.71;100.00;98747.31;4977749;28;20945;-79
2022/06/12 05:50:54;;;;;;;2.23;2.00;;;15.70;99.90;;;16.75;100.00;98759.88;4999039;28;20807;-79
2022/06/12 05:53:28;;;;;;;4.17;2.27;;;15.80;99.90;;;16.79;100.00;98749.72;4978081;28;20467;-79
2022/06/12 05:56:00;;;;;;;2.90;1.67;;;15.90;99.90;;;16.83;100.00;98753.56;4979142;28;20943;-79
2022/06/12 05:58:32;;;;;;;3.60;2.20;;;15.90;99.90;;;16.87;100.00;98752.13;4977450;28;20461;-79
2022/06/12 06:01:02;;;;;;;5.77;1.70;;;15.90;99.90;;;16.92;100.00;98747.03;4978192;28;20530;-79
2022/06/12 06:03:32;;;;;;;3.13;1.90;;;16.00;99.90;;;16.96;100.00;98750.88;4976113;28;20518;-79
2022/06/12 06:06:04;;;;;;;6.93;2.13;;;16.00;99.90;;;17.02;100.00;98748.19;4975341;28;20460;-78
2022/06/12 06:08:33;;;;;;;3.27;2.07;;;16.10;99.90;;;17.06;100.00;98748.56;4978253;28;20889;-79
2022/06/12 06:11:02;;;;;;;4.20;2.17;;;16.10;99.90;;;17.11;100.00;98751.41;4978588;28;20467;-78
2022/06/12 06:13:34;;;;;;;4.97;3.10;;;16.20;99.90;;;17.15;100.00;98749.16;4978068;28;20468;-79
2022/06/12 06:16:07;;;;;;;10.47;4.73;;;16.30;99.90;;;17.21;100.00;98745.66;4976596;28;20456;-79
2022/06/12 06:18:40;;;;;;;4.90;2.50;;;16.30;99.90;;;17.25;100.00;98745.00;4976990;28;21062;-79
2022/06/12 06:21:11;;;;;;;3.27;2.00;;;16.30;99.90;;;17.31;100.00;98743.38;4975469;28;20938;-78
2022/06/12 06:23:49;;;;;;;5.83;2.90;;;16.40;99.90;;;17.36;100.00;98746.97;4976627;28;20471;-78
2022/06/12 06:26:20;;;;;;;4.33;2.10;;;16.50;99.90;;;17.42;100.00;98740.84;4940541;28;20486;-79
2022/06/12 06:28:56;;;;;;;7.47;2.60;;;16.50;99.90;;;17.48;100.00;98736.53;4995711;28;20530;-79
2022/06/12 06:31:27;;;;;;;4.07;1.90;;;16.60;99.90;;;17.53;100.00;98736.69;4995499;28;20525;-79
2022/06/12 06:33:57;;;;;;;5.63;1.87;;;16.60;99.90;;;17.58;100.00;98735.06;4995151;28;20988;-79
2022/06/12 06:36:27;;;;;;;7.53;2.53;;;16.70;99.90;;;17.63;100.00;98728.34;4996110;28;21029;-79
2022/06/12 06:38:58;;;;;;;2.50;1.90;;;16.70;99.90;;;17.69;100.00;98732.75;4995279;28;21245;-78
2022/06/12 06:41:28;;;;;;;3.93;1.63;;;16.80;99.90;;;17.74;100.00;98739.00;4996136;28;21221;-78
2022/06/12 06:46:48;;;;;;;3.40;1.87;;;16.90;99.90;;;17.87;100.00;98738.13;4996613;28;20489;-79
2022/06/12 06:49:21;;;;;;;4.83;2.37;;;16.90;99.90;;;17.92;100.00;98740.91;5000042;28;20610;-79
2022/06/12 06:51:51;;;;;;;4.70;1.77;;;17.00;99.90;;;17.98;100.00;98738.19;4995672;28;20468;-79
2022/06/12 06:54:21;;;;;;;5.27;1.67;;;17.10;99.90;;;18.03;100.00;98738.38;4997373;28;20962;-78
2022/06/12 06:56:51;;;;;;;2.60;1.80;;;17.10;99.90;;;18.09;100.00;98742.78;4997689;28;20494;-79
2022/06/12 06:59:23;;;;;;;8.23;3.70;;;17.20;99.90;;;18.16;100.00;98731.31;4998616;28;20451;-79
2022/06/12 07:01:53;;;;;;;4.80;3.20;;;17.30;99.90;;;18.21;100.00;98721.72;5001054;28;20462;-80
2022/06/12 07:04:24;;;;;;;5.27;2.13;;;17.40;99.90;;;18.28;100.00;98725.09;5000418;28;20454;-78
2022/06/12 07:06:57;;;;;;;6.60;2.30;;;17.40;99.90;;;18.35;100.00;98731.13;4997713;28;20454;-79
2022/06/12 07:09:30;;;;;;;5.30;2.00;;;17.60;99.90;;;18.44;100.00;98723.69;4997700;28;20507;-79
2022/06/12 07:12:00;;;;;;;7.03;3.60;;;17.60;99.90;;;18.49;100.00;98727.31;4998895;28;20575;-79
2022/06/12 07:14:31;;;;;;;9.63;1.80;;;17.70;99.90;;;18.56;100.00;98728.09;4998478;28;20586;-79
2022/06/12 07:17:02;;;;;;;13.23;3.10;;;17.80;99.90;;;18.64;100.00;98726.97;4998171;28;20702;-78
2022/06/12 07:19:32;;;;;;;5.07;2.20;;;17.90;99.90;;;18.71;100.00;98729.56;4996796;28;20487;-78
2022/06/12 07:22:01;;;;;;;8.20;2.17;;;18.00;99.90;;;18.76;100.00;98725.19;4998328;28;20955;-78
2022/06/12 07:24:31;;;;;;;10.53;3.57;;;18.10;99.90;;;18.84;100.00;98724.09;4998944;28;20444;-86
2022/06/12 07:27:01;;;;;;;107.40;49.60;;;18.10;99.90;;;18.91;100.00;98720.31;4995465;28;21228;-78
2022/06/12 07:29:33;;;;;;;17.87;9.00;;;18.20;99.90;;;18.98;100.00;98722.88;4994625;28;20482;-78
2022/06/12 07:32:03;;;;;;;6.33;2.73;;;18.20;99.90;;;19.05;100.00;98720.97;4994079;28;20521;-78
2022/06/12 07:34:33;;;;;;;4.93;2.00;;;18.30;99.90;;;19.10;100.00;98726.38;4992871;28;21162;-78
2022/06/12 07:37:02;;;;;;;4.17;2.07;;;18.40;99.90;;;19.18;100.00;98714.66;4994447;28;20541;-78
2022/06/12 07:39:35;;;;;;;2.40;1.40;;;18.50;99.90;;;19.24;100.00;98709.25;4993764;28;20594;-78
2022/06/12 07:42:07;;;;;;;4.50;1.70;;;18.50;99.90;;;19.29;100.00;98709.41;4997333;28;20456;-78
2022/06/12 07:44:39;;;;;;;3.10;1.63;;;18.60;99.90;;;19.35;100.00;98712.97;4997812;28;20474;-78
2022/06/12 07:47:10;;;;;;;40.40;19.33;;;18.60;99.90;;;19.41;100.00;98707.59;4997566;28;20558;-79
2022/06/12 07:49:39;;;;;;;10.83;4.23;;;18.70;99.90;;;19.47;100.00;98712.00;4995367;28;21242;-78
2022/06/12 07:52:12;;;;;;;8.20;1.50;;;18.70;99.90;;;19.53;100.00;98705.81;4997271;28;20464;-78
2022/06/12 07:54:44;;;;;;;4.93;1.97;;;18.80;99.90;;;19.62;100.00;98708.91;4998852;28;20981;-78
2022/06/12 07:57:13;;;;;;;6.60;1.93;;;18.90;99.90;;;19.68;100.00;98701.91;4997116;28;20529;-79
2022/06/12 07:59:44;;;;;;;6.50;2.57;;;19.00;99.90;;;19.74;100.00;98704.44;4998979;28;20513;-78
2022/06/12 08:02:14;;;;;;;6.73;2.13;;;19.10;99.90;;;19.82;100.00;98700.66;4998340;28;20526;-79
2022/06/12 08:04:43;;;;;;;5.60;1.67;;;19.10;99.90;;;19.87;100.00;98700.75;4997693;28;20568;-79
2022/06/12 08:07:13;;;;;;;3.10;1.73;;;19.20;99.90;;;19.96;100.00;98702.81;4994834;28;21136;-78
2022/06/12 08:09:44;;;;;;;4.13;2.10;;;19.30;99.90;;;20.01;100.00;98697.66;5002089;28;20501;-78
2022/06/12 08:12:15;;;;;;;7.50;1.80;;;19.40;99.90;;;20.05;100.00;98680.22;5001305;28;20460;-78
2022/06/12 08:14:47;;;;;;;6.50;2.17;;;19.40;99.90;;;20.12;100.00;98689.91;4996898;28;20498;-78
2022/06/12 08:17:18;;;;;;;3.30;1.63;;;19.50;99.90;;;20.19;100.00;98690.59;5000356;28;20458;-78
2022/06/12 08:22:36;;;;;;;109.27;63.90;;;19.50;99.90;;;20.32;100.00;98685.88;5000554;28;20457;-79
2022/06/12 08:25:08;;;;;;;5.57;3.10;;;19.60;99.90;;;20.39;100.00;98696.38;4996064;28;20465;-78
2022/06/12 08:27:37;;;;;;;4.80;1.90;;;19.80;99.90;;;20.46;100.00;98691.72;5001096;28;20522;-78
2022/06/12 08:30:10;;;;;;;8.63;2.33;;;19.80;99.90;;;20.53;100.00;98692.41;5001913;28;20523;-78
2022/06/12 08:32:45;;;;;;;11.53;1.70;;;19.90;99.90;;;20.61;100.00;98691.25;4998293;28;20450;-78
2022/06/12 08:35:21;;;;;;;6.10;2.00;;;20.00;99.90;;;20.69;100.00;98685.56;4998709;28;20478;-78
2022/06/12 08:37:50;;;;;;;7.33;2.10;;;20.10;99.90;;;20.77;100.00;98682.50;4999431;28;20507;-78
2022/06/12 08:40:36;;;;;;;4.20;1.97;;;20.20;99.90;;;20.84;100.00;98683.19;5003351;28;20498;-78
2022/06/12 08:43:20;;;;;;;4.47;1.80;;;20.20;99.90;;;20.93;100.00;98689.75;4998313;28;20463;-78
2022/06/12 08:45:55;;;;;;;5.30;1.87;;;20.30;99.90;;;21.01;100.00;98687.50;4999911;28;20467;-78
2022/06/12 08:48:32;;;;;;;3.20;1.37;;;20.40;99.90;;;21.07;100.00;98683.06;5003028;28;20491;-78
2022/06/12 08:51:10;;;;;;;9.83;2.20;;;20.40;99.90;;;21.13;100.00;98682.16;4995827;28;20743;-79
2022/06/12 08:53:49;;;;;;;6.47;1.37;;;20.50;99.90;;;21.18;100.00;98684.91;4996353;28;20517;-78
2022/06/12 08:56:30;;;;;;;3.50;1.83;;;20.50;99.90;;;21.31;100.00;98683.81;4999530;28;21093;-78
2022/06/12 08:59:09;;;;;;;25.23;12.00;;;20.70;99.90;;;21.38;100.00;98679.94;5004022;28;20456;-77
2022/06/12 09:01:41;;;;;;;6.63;2.60;;;20.80;99.90;;;21.44;100.00;98686.16;5000083;28;20525;-78
2022/06/12 09:04:15;;;;;;;6.33;3.37;;;20.80;99.90;;;21.50;100.00;98683.34;5000670;28;20463;-88
2022/06/12 09:06:51;;;;;;;7.63;2.23;;;20.90;99.90;;;21.59;100.00;98681.06;5002857;28;20552;-78
2022/06/12 09:09:26;;;;;;;4.70;2.07;;;21.00;99.90;;;21.68;100.00;98676.97;5001093;28;20517;-78
2022/06/12 09:12:10;;;;;;;4.47;1.80;;;21.10;99.90;;;21.76;100.00;98665.09;5001260;28;20446;-78
2022/06/12 09:15:06;;;;;;;4.47;2.20;;;21.10;99.90;;;21.79;96.10;98660.09;5002609;28;20479;-78
2022/06/12 09:17:55;;;;;;;5.60;1.80;;;21.10;99.90;;;21.84;92.36;98662.81;5000588;28;20483;-78
2022/06/12 09:20:38;;;;;;;7.07;1.83;;;21.10;99.90;;;21.90;93.16;98656.53;5002138;28;20447;-78
2022/06/12 09:23:25;;;;;;;4.20;1.87;;;21.20;99.90;;;21.91;95.07;98650.19;4997857;28;20467;-78
2022/06/12 09:26:02;;;;;;;5.97;1.83;;;21.20;99.90;;;21.93;96.30;98649.94;4997776;28;20564;-78
2022/06/12 09:28:45;;;;;;;5.23;2.40;;;21.30;99.90;;;21.93;96.44;98650.75;4998709;28;20459;-78
2022/06/12 09:31:23;;;;;;;4.00;1.63;;;21.30;99.90;;;21.95;91.31;98653.16;4999455;28;21196;-78
2022/06/12 09:34:08;;;;;;;2.73;1.53;;;21.30;99.90;;;21.98;91.86;98653.47;5001353;28;20451;-78
2022/06/12 09:38:18;;;;;;;3.40;1.60;;;21.20;99.90;;;22.01;90.49;98642.31;4999116;28;20814;-77
2022/06/12 09:40:25;;;;;;;3.83;1.90;;;21.30;99.90;;;22.08;89.96;98650.13;4999389;28;20458;-78
2022/06/12 09:43:22;;;;;;;5.33;1.47;;;21.40;99.90;;;22.14;92.96;98641.19;4999033;28;20475;-78
2022/06/12 09:46:02;;;;;;;3.63;1.57;;;21.50;99.90;;;22.19;92.37;98638.56;5000100;28;20483;-78
2022/06/12 09:48:54;;;;;;;5.53;1.87;;;21.60;99.90;;;22.23;89.13;98636.22;4999369;28;20513;-78
2022/06/12 09:51:42;;;;;;;6.40;1.60;;;21.70;99.90;;;22.28;88.71;98639.75;5001205;28;21036;-78
2022/06/12 09:54:38;;;;;;;3.47;1.60;;;21.70;99.90;;;22.34;89.11;98635.28;4998806;28;20560;-78
2022/06/12 09:57:19;;;;;;;7.00;1.90;;;21.80;99.90;;;22.38;89.93;98637.22;5000528;28;20463;-78
2022/06/12 10:00:00;;;;;;;5.00;1.80;;;21.80;99.90;;;22.42;88.26;98637.53;4999466;28;20443;-78
2022/06/12 10:02:37;;;;;;;5.60;1.50;;;21.80;99.90;;;22.47;88.70;98624.25;5002407;28;20440;-78
2022/06/12 10:05:15;;;;;;;5.00;1.70;;;21.90;99.90;;;22.55;89.01;98637.16;4999887;28;20447;-78
2022/06/12 10:07:55;;;;;;;2.47;1.83;;;21.90;99.90;;;22.59;88.70;98628.38;5000957;28;20444;-78
2022/06/12 10:10:33;;;;;;;3.20;1.57;;;22.00;99.90;;;22.65;88.67;98631.94;4999828;28;20598;-78
2022/06/12 10:13:11;;;;;;;6.63;2.07;;;22.10;99.90;;;22.68;86.26;98630.66;4999536;28;20462;-77
2022/06/12 10:15:48;;;;;;;3.30;1.50;;;22.10;99.90;;;22.73;86.92;98628.84;4999445;28;20471;-78
2022/06/12 10:18:29;;;;;;;3.97;1.80;;;22.30;99.90;;;22.75;88.94;98631.25;4997400;28;20447;-78
2022/06/12 10:21:08;;;;;;;2.90;1.50;;;22.20;99.90;;;22.86;85.46;98630.31;5002764;28;20459;-78
2022/06/12 10:23:39;;;;;;;5.60;1.80;;;22.40;99.70;;;22.92;83.90;98632.78;5002018;28;21503;-78
2022/06/12 10:26:18;;;;;;;2.70;2.00;;;22.40;99.20;;;22.93;84.20;98621.06;4999246;28;20470;-78
2022/06/12 10:29:06;;;;;;;3.13;1.90;;;22.30;99.60;;;22.94;82.30;98624.53;4998817;28;20456;-78
2022/06/12 10:31:49;;;;;;;3.03;1.63;;;22.40;99.20;;;22.98;82.49;98620.28;5001146;28;20491;-78
2022/06/12 10:34:23;;;;;;;4.00;1.70;;;22.30;99.20;;;22.96;81.87;98617.06;4998358;28;20471;-78
2022/06/12 10:36:53;;;;;;;5.13;1.80;;;22.30;98.80;;;22.97;83.26;98605.34;4997397;28;20494;-78
2022/06/12 10:39:28;;;;;;;3.63;1.77;;;22.30;99.30;;;22.97;82.16;98603.47;4999605;28;20531;-78
2022/06/12 10:42:01;;;;;;;8.13;1.80;;;22.30;99.10;;;22.98;81.20;98612.25;5000156;28;20852;-78
2022/06/12 10:44:40;;;;;;;4.57;1.67;;;22.40;98.70;;;23.04;81.57;98619.28;4997156;28;20447;-78
2022/06/12 10:47:21;;;;;;;4.90;1.50;;;22.40;99.00;;;23.08;82.09;98604.38;4996380;28;20485;-78
2022/06/12 10:50:20;;;;;;;3.13;1.57;;;22.50;99.20;;;23.14;78.75;98607.88;5002813;28;20987;-78
2022/06/12 10:53:15;;;;;;;5.10;1.70;;;22.60;98.30;;;23.20;79.61;98598.84;5000522;28;20458;-78
2022/06/12 10:56:00;;;;;;;3.60;1.80;;;22.60;98.50;;;23.25;78.62;98599.72;5000671;28;20448;-78
2022/06/12 10:59:10;;;;;;;5.10;2.07;;;22.70;98.30;;;23.33;76.27;98604.56;4997974;28;21034;-78
2022/06/12 11:02:46;;;;;;;5.33;1.93;;;22.80;97.80;;;23.36;75.43;98590.72;4999813;28;20992;-78
2022/06/12 11:06:02;;;;;;;1.80;1.50;;;22.80;97.50;;;23.45;73.93;98594.56;4998424;28;20493;-78
2022/06/12 11:09:02;;;;;;;4.33;1.67;;;22.90;97.80;;;23.52;73.31;98589.00;4995538;28;20468;-78